createdAt,value
2022-09-02T00:02:31.094Z,4.90
2022-09-02T00:04:59.639Z,4.70
2022-09-02T00:07:27.159Z,4.60
2022-09-02T00:10:01.020Z,5.10
2022-09-02T00:12:28.526Z,4.80
2022-09-02T00:14:55.994Z,4.63
2022-09-02T00:17:30.035Z,5.13
2022-09-02T00:19:57.494Z,4.85
2022-09-02T00:22:25.934Z,4.43
2022-09-02T00:25:00.006Z,4.97
2022-09-02T00:27:27.489Z,5.03
2022-09-02T00:29:55.034Z,4.80
2022-09-02T00:32:29.029Z,4.40
2022-09-02T00:34:58.142Z,4.78
2022-09-02T00:37:26.183Z,4.75
2022-09-02T00:40:01.013Z,4.18
2022-09-02T00:42:28.563Z,4.40
2022-09-02T00:44:56.111Z,4.30
2022-09-02T00:47:30.028Z,4.20
2022-09-02T00:49:58.845Z,3.90
2022-09-02T00:52:48.054Z,4.47
2022-09-02T00:55:19.459Z,4.60
2022-09-02T00:57:59.030Z,4.18
2022-09-02T01:00:31.238Z,4.57
2022-09-02T01:03:13.065Z,4.40
2022-09-02T01:05:45.612Z,4.50
2022-09-02T01:08:32.035Z,4.40
2022-09-02T01:11:00.928Z,4.28
2022-09-02T01:13:31.748Z,4.55
2022-09-02T01:16:39.071Z,4.50
2022-09-02T01:19:38.698Z,4.43
2022-09-02T01:22:31.046Z,5.00
2022-09-02T01:25:04.854Z,4.55
2022-09-02T01:27:39.043Z,4.50
2022-09-02T01:30:08.618Z,4.10
2022-09-02T01:32:36.128Z,4.10
2022-09-02T01:35:12.044Z,4.40
2022-09-02T01:37:40.184Z,4.10
2022-09-02T01:40:11.679Z,4.97
2022-09-02T01:42:48.036Z,4.25
2022-09-02T01:45:15.863Z,4.10
2022-09-02T01:47:43.339Z,4.03
2022-09-02T01:50:17.032Z,4.13
2022-09-02T01:52:44.844Z,4.43
2022-09-02T01:55:12.756Z,4.22
2022-09-02T01:57:47.036Z,4.53
2022-09-02T02:00:16.460Z,4.03
2022-09-02T02:02:44.286Z,4.32
2022-09-02T02:05:21.061Z,3.70
2022-09-02T02:07:48.736Z,3.53
2022-09-02T02:10:19.054Z,4.03
2022-09-02T02:12:53.109Z,3.55
2022-09-02T02:15:21.892Z,3.65
2022-09-02T02:18:03.063Z,3.45
2022-09-02T02:20:30.587Z,3.95
2022-09-02T02:22:58.203Z,3.60
2022-09-02T02:25:32.071Z,3.63
2022-09-02T02:27:59.774Z,3.97
2022-09-02T02:30:30.004Z,3.88
2022-09-02T02:33:05.096Z,4.07
2022-09-02T02:35:32.691Z,3.78
2022-09-02T02:38:03.593Z,3.85
2022-09-02T02:40:38.157Z,4.07
2022-09-02T02:43:05.831Z,3.58
2022-09-02T02:45:33.378Z,3.80
2022-09-02T02:48:07.171Z,3.60
2022-09-02T02:50:34.628Z,3.70
2022-09-02T02:53:02.679Z,3.63
2022-09-02T02:55:37.058Z,3.45
2022-09-02T02:58:04.623Z,3.75
2022-09-02T03:00:33.554Z,3.33
2022-09-02T03:03:14.111Z,3.40
2022-09-02T03:05:42.036Z,3.85
2022-09-02T03:08:10.796Z,3.90
2022-09-02T03:10:48.074Z,3.40
2022-09-02T03:13:15.701Z,3.83
2022-09-02T03:15:57.162Z,3.85
2022-09-02T03:18:31.722Z,3.63
2022-09-02T03:21:06.069Z,3.80
2022-09-02T03:23:33.503Z,3.90
2022-09-02T03:26:01.102Z,4.03
2022-09-02T03:28:35.143Z,3.92
2022-09-02T03:31:02.607Z,3.72
2022-09-02T03:33:30.022Z,3.90
2022-09-02T03:36:04.085Z,3.65
2022-09-02T03:38:31.539Z,3.75
2022-09-02T03:40:58.946Z,3.85
2022-09-02T03:43:33.069Z,4.00
2022-09-02T03:46:00.565Z,3.90
2022-09-02T03:48:29.473Z,3.95
2022-09-02T03:51:03.101Z,3.75
2022-09-02T03:53:30.806Z,3.78
2022-09-02T03:55:58.916Z,3.65
2022-09-02T03:58:33.157Z,3.60
2022-09-02T04:01:01.298Z,3.55
2022-09-02T04:03:28.980Z,4.07
2022-09-02T04:06:03.098Z,3.35
2022-09-02T04:08:30.717Z,3.15
2022-09-02T04:10:58.132Z,3.50
2022-09-02T04:13:32.098Z,3.40
2022-09-02T04:16:06.185Z,3.40
2022-09-02T04:18:51.083Z,2.78
2022-09-02T04:21:19.792Z,2.92
2022-09-02T04:23:47.484Z,2.55
2022-09-02T04:26:23.074Z,2.30
2022-09-02T04:28:51.344Z,2.75
2022-09-02T04:31:20.568Z,2.45
2022-09-02T04:33:56.071Z,2.67
2022-09-02T04:36:24.386Z,2.40
2022-09-02T04:38:53.378Z,2.40
2022-09-02T04:41:31.070Z,2.50
2022-09-02T04:44:00.225Z,2.40
2022-09-02T04:46:34.557Z,2.10
2022-09-02T04:49:11.095Z,2.22
2022-09-02T04:51:38.727Z,2.00
2022-09-02T04:54:06.455Z,2.30
2022-09-02T04:56:41.084Z,2.10
2022-09-02T04:59:08.777Z,2.03
2022-09-02T05:01:37.429Z,2.10
2022-09-02T05:04:16.201Z,2.30
2022-09-02T05:06:44.686Z,1.98
2022-09-02T05:09:12.722Z,2.00
2022-09-02T05:11:47.093Z,2.40
2022-09-02T05:14:16.322Z,2.10
2022-09-02T05:17:03.815Z,2.20
2022-09-02T05:19:34.344Z,1.90
2022-09-02T05:22:08.091Z,2.10
2022-09-02T05:24:35.571Z,2.10
2022-09-02T05:27:03.132Z,2.10
2022-09-02T05:29:37.107Z,2.20
2022-09-02T05:32:05.249Z,2.30
2022-09-02T05:34:33.481Z,2.10
2022-09-02T05:37:08.170Z,2.15
2022-09-02T05:39:36.530Z,2.13
2022-09-02T05:42:04.137Z,2.15
2022-09-02T05:44:39.090Z,2.40
2022-09-02T05:47:06.952Z,2.20
2022-09-02T05:49:34.836Z,2.30
2022-09-02T05:52:12.198Z,2.30
2022-09-02T05:54:40.708Z,2.38
2022-09-02T05:57:19.102Z,2.35
2022-09-02T05:59:49.220Z,2.22
2022-09-02T06:02:26.268Z,2.28
2022-09-02T06:05:26.112Z,2.15
2022-09-02T06:08:00.129Z,2.30
2022-09-02T06:10:27.640Z,2.55
2022-09-02T06:12:55.864Z,2.47
2022-09-02T06:15:35.205Z,2.33
2022-09-02T06:18:09.445Z,2.38
2022-09-02T06:20:54.168Z,2.05
2022-09-02T06:23:21.746Z,2.17
2022-09-02T06:25:51.446Z,2.10
2022-09-02T06:28:25.162Z,2.05
2022-09-02T06:30:52.678Z,2.60
2022-09-02T06:33:20.373Z,2.28
2022-09-02T06:35:54.163Z,2.10
2022-09-02T06:38:22.127Z,2.47
2022-09-02T06:40:54.998Z,2.45
2022-09-02T06:43:30.521Z,2.45
2022-09-02T06:46:16.147Z,2.30
2022-09-02T06:48:55.879Z,2.38
2022-09-02T06:51:30.459Z,2.30
2022-09-02T06:54:05.176Z,2.20
2022-09-02T06:56:33.363Z,2.25
2022-09-02T06:59:01.037Z,2.60
2022-09-02T07:01:40.287Z,2.15
2022-09-02T07:04:26.415Z,2.30
2022-09-02T07:07:03.253Z,2.17
2022-09-02T07:09:33.509Z,2.38
2022-09-02T07:12:04.991Z,2.30
2022-09-02T07:14:43.148Z,2.30
2022-09-02T07:17:22.037Z,2.28
2022-09-02T07:20:06.375Z,2.50
2022-09-02T07:22:34.025Z,2.22
2022-09-02T07:25:02.073Z,2.30
2022-09-02T07:27:36.149Z,1.90
2022-09-02T07:30:05.241Z,1.98
2022-09-02T07:32:33.136Z,2.00
2022-09-02T07:35:07.158Z,2.00
2022-09-02T07:37:35.289Z,2.30
2022-09-02T07:40:15.273Z,2.42
2022-09-02T07:42:43.886Z,2.15
2022-09-02T07:45:12.289Z,2.42
2022-09-02T07:47:46.251Z,1.83
2022-09-02T07:50:19.078Z,2.00
2022-09-02T07:52:56.277Z,1.80
2022-09-02T07:55:24.919Z,2.40
2022-09-02T07:57:55.443Z,2.00
2022-09-02T08:00:34.156Z,1.92
2022-09-02T08:03:02.075Z,2.05
2022-09-02T08:05:31.952Z,2.22
2022-09-02T08:08:07.278Z,1.60
2022-09-02T08:10:36.543Z,2.00
2022-09-02T08:13:06.530Z,2.03
2022-09-02T08:15:42.174Z,1.90
2022-09-02T08:18:22.289Z,2.00
2022-09-02T08:20:57.202Z,2.33
2022-09-02T08:23:36.715Z,1.80
2022-09-02T08:26:12.220Z,2.35
2022-09-02T08:28:39.954Z,2.20
2022-09-02T08:31:08.419Z,2.00
2022-09-02T08:33:43.255Z,1.90
2022-09-02T08:36:12.077Z,2.17
2022-09-02T08:38:39.609Z,1.90
2022-09-02T08:41:45.253Z,1.77
2022-09-02T08:44:20.602Z,1.73
2022-09-02T08:47:01.173Z,1.73
2022-09-02T08:49:38.594Z,1.48
2022-09-02T08:52:17.240Z,1.60
2022-09-02T08:54:53.119Z,1.58
2022-09-02T08:57:27.272Z,1.30
2022-09-02T09:00:01.310Z,1.40
2022-09-02T09:03:10.885Z,1.67
2022-09-02T09:05:55.100Z,1.55
2022-09-02T09:08:48.004Z,1.40
2022-09-02T09:11:34.071Z,2.60
2022-09-02T09:14:13.918Z,1.73
2022-09-02T09:17:01.513Z,1.60
2022-09-02T09:20:01.904Z,1.70
2022-09-02T09:22:46.039Z,1.30
2022-09-02T09:25:22.890Z,1.50
2022-09-02T09:27:50.379Z,1.50
2022-09-02T09:30:18.335Z,1.80
2022-09-02T09:33:08.104Z,1.77
2022-09-02T09:35:56.531Z,1.65
2022-09-02T09:38:38.881Z,1.52
2022-09-02T09:41:24.188Z,1.50
2022-09-02T09:44:00.911Z,1.73
2022-09-02T09:46:35.184Z,2.08
2022-09-02T09:49:08.904Z,1.40
2022-09-02T09:51:52.359Z,1.60
2022-09-02T09:54:25.912Z,1.70
2022-09-02T09:56:55.169Z,1.85
2022-09-02T10:00:03.937Z,1.77
2022-09-02T10:02:36.301Z,1.38
2022-09-02T10:05:44.951Z,1.55
2022-09-02T10:08:15.746Z,1.77
2022-09-02T10:11:03.915Z,1.30
2022-09-02T10:13:33.949Z,1.48
2022-09-02T10:16:37.227Z,1.30
2022-09-02T10:19:26.921Z,1.58
2022-09-02T10:22:40.035Z,1.40
2022-09-02T10:25:26.590Z,1.38
2022-09-02T10:28:24.023Z,1.65
2022-09-02T10:30:51.742Z,1.90
2022-09-02T10:34:03.947Z,1.60
2022-09-02T10:36:41.999Z,1.55
2022-09-02T10:39:24.050Z,1.67
2022-09-02T10:41:54.219Z,1.80
2022-09-02T10:44:37.975Z,1.40
2022-09-02T10:47:22.145Z,1.65
2022-09-02T10:50:18.916Z,1.40
2022-09-02T10:53:08.719Z,1.27
2022-09-02T10:55:49.966Z,1.50
2022-09-02T10:58:49.820Z,1.58
2022-09-02T11:01:32.018Z,1.42
2022-09-02T11:04:37.988Z,1.80
2022-09-02T11:07:17.011Z,1.98
2022-09-02T11:09:55.461Z,1.77
2022-09-02T11:12:46.221Z,1.45
2022-09-02T11:15:36.049Z,1.63
2022-09-02T11:18:40.815Z,1.52
2022-09-02T11:21:33.950Z,1.80
2022-09-02T11:24:16.800Z,1.70
2022-09-02T11:26:50.196Z,1.80
2022-09-02T11:30:00.813Z,1.60
2022-09-02T11:33:11.286Z,1.20
2022-09-02T11:35:46.835Z,1.58
2022-09-02T11:38:33.295Z,1.45
2022-09-02T11:41:36.853Z,1.48
2022-09-02T11:44:16.693Z,1.33
2022-09-02T11:47:09.835Z,1.70
2022-09-02T11:49:55.766Z,1.50
2022-09-02T11:52:48.840Z,1.55
2022-09-02T11:55:47.126Z,1.38
2022-09-02T11:58:38.892Z,1.67
2022-09-02T12:01:31.700Z,2.03
2022-09-02T12:07:10.047Z,1.67
2022-09-02T12:09:58.888Z,1.40
2022-09-02T12:12:39.775Z,1.50
2022-09-02T12:15:23.831Z,1.30
2022-09-02T12:18:11.880Z,1.60
2022-09-02T12:20:51.090Z,1.40
2022-09-02T12:23:48.934Z,1.50
2022-09-02T12:26:57.870Z,1.50
2022-09-02T12:29:25.498Z,1.30
2022-09-02T12:31:55.169Z,1.30
2022-09-02T12:34:31.886Z,1.23
2022-09-02T12:37:01.406Z,1.30
2022-09-02T12:39:28.814Z,1.60
2022-09-02T12:42:02.942Z,1.40
2022-09-02T12:44:51.427Z,1.67
2022-09-02T12:47:52.854Z,1.50
2022-09-02T12:50:28.509Z,1.20
2022-09-02T12:53:30.843Z,1.52
2022-09-02T12:56:03.024Z,1.42
2022-09-02T12:58:49.876Z,1.85
2022-09-02T13:01:35.111Z,1.30
2022-09-02T13:04:20.861Z,1.45
2022-09-02T13:06:58.141Z,1.42
2022-09-02T13:09:58.854Z,1.30
2022-09-02T13:12:32.047Z,1.40
2022-09-02T13:15:24.979Z,1.50
2022-09-02T13:18:23.872Z,1.25
2022-09-02T13:21:28.855Z,1.48
2022-09-02T13:24:15.261Z,1.50
2022-09-02T13:27:01.961Z,1.27
2022-09-02T13:29:44.516Z,1.23
2022-09-02T13:32:34.875Z,1.40
2022-09-02T13:35:16.133Z,1.20
2022-09-02T13:38:06.059Z,1.58
2022-09-02T13:40:35.679Z,1.50
2022-09-02T13:43:33.904Z,1.20
2022-09-02T13:46:03.072Z,1.60
2022-09-02T13:48:40.867Z,1.58
2022-09-02T13:51:13.908Z,1.40
2022-09-02T13:54:21.566Z,1.30
2022-09-02T13:56:40.691Z,1.73
2022-09-02T13:59:14.862Z,1.40
2022-09-02T14:01:42.487Z,1.30
2022-09-02T14:04:22.919Z,1.23
2022-09-02T14:06:51.358Z,1.60
2022-09-02T14:09:36.076Z,1.50
2022-09-02T14:12:06.748Z,1.48
2022-09-02T14:14:34.725Z,1.50
2022-09-02T14:17:29.892Z,1.60
2022-09-02T14:20:16.327Z,1.63
2022-09-02T14:22:51.906Z,1.48
2022-09-02T14:25:24.184Z,1.98
2022-09-02T14:28:03.920Z,1.60
2022-09-02T14:30:38.682Z,1.50
2022-09-02T14:33:33.911Z,1.50
2022-09-02T14:36:09.138Z,1.48
2022-09-02T14:39:03.925Z,1.35
2022-09-02T14:41:38.629Z,1.60
2022-09-02T14:44:43.166Z,1.70
2022-09-02T14:47:15.813Z,1.60
2022-09-02T14:50:01.966Z,1.63
2022-09-02T14:52:36.785Z,1.40
2022-09-02T14:55:12.921Z,1.58
2022-09-02T14:57:42.120Z,1.55
2022-09-02T15:00:21.230Z,1.90
2022-09-02T15:02:57.008Z,1.48
2022-09-02T15:05:31.998Z,1.50
2022-09-02T15:07:59.622Z,1.38
2022-09-02T15:10:28.029Z,1.63
2022-09-02T15:13:03.936Z,1.73
2022-09-02T15:15:31.451Z,1.50
2022-09-02T15:18:12.902Z,1.55
2022-09-02T15:20:47.159Z,1.70
2022-09-02T15:23:21.942Z,1.48
2022-09-02T15:25:49.528Z,1.80
2022-09-02T15:28:17.499Z,1.40
2022-09-02T15:30:53.953Z,1.75
2022-09-02T15:33:22.471Z,1.83
2022-09-02T15:35:50.542Z,1.63
2022-09-02T15:38:24.919Z,1.52
2022-09-02T15:40:52.799Z,1.70
2022-09-02T15:43:21.449Z,1.40
2022-09-02T15:45:56.084Z,1.67
2022-09-02T15:48:23.907Z,1.52
2022-09-02T15:50:54.287Z,1.65
2022-09-02T15:53:29.058Z,1.73
2022-09-02T15:55:56.582Z,2.00
2022-09-02T15:58:24.176Z,1.60
2022-09-02T16:00:58.587Z,1.80
2022-09-02T16:03:26.237Z,1.50
2022-09-02T16:05:53.768Z,1.67
2022-09-02T16:08:27.917Z,1.77
2022-09-02T16:10:55.415Z,1.50
2022-09-02T16:13:23.161Z,1.85
2022-09-02T16:16:00.036Z,1.60
2022-09-02T16:18:48.986Z,1.67
2022-09-02T16:21:23.492Z,1.60
2022-09-02T16:23:51.325Z,1.40
2022-09-02T16:26:35.946Z,1.88
2022-09-02T16:29:06.431Z,1.60
2022-09-02T16:31:47.708Z,1.65
2022-09-02T16:34:24.806Z,1.85
2022-09-02T16:36:58.916Z,1.70
2022-09-02T16:39:26.585Z,1.70
2022-09-02T16:41:54.529Z,1.73
2022-09-02T16:44:30.930Z,2.17
2022-09-02T16:46:58.424Z,1.70
2022-09-02T16:49:25.978Z,1.67
2022-09-02T16:52:00.938Z,1.30
2022-09-02T16:54:33.632Z,1.70
2022-09-02T16:57:10.921Z,1.35
2022-09-02T16:59:38.595Z,1.90
2022-09-02T17:02:06.107Z,1.52
2022-09-02T17:04:40.911Z,1.40
2022-09-02T17:07:09.518Z,1.42
2022-09-02T17:09:37.023Z,1.50
2022-09-02T17:12:10.938Z,1.88
2022-09-02T17:14:38.498Z,1.70
2022-09-02T17:17:06.004Z,1.80
2022-09-02T17:19:39.908Z,1.60
2022-09-02T17:22:07.288Z,1.40
2022-09-02T17:24:34.941Z,1.70
2022-09-02T17:27:12.024Z,1.63
2022-09-02T17:29:55.226Z,1.58
2022-09-02T17:32:28.941Z,1.50
2022-09-02T17:34:56.791Z,1.50
2022-09-02T17:37:27.525Z,1.67
2022-09-02T17:40:01.956Z,1.55
2022-09-02T17:42:30.197Z,1.83
2022-09-02T17:44:58.165Z,1.45
2022-09-02T17:47:33.959Z,1.60
2022-09-02T17:50:01.565Z,1.70
2022-09-02T17:52:29.518Z,1.58
2022-09-02T17:55:04.015Z,1.65
2022-09-02T17:57:46.404Z,1.35
2022-09-02T18:00:26.061Z,1.73
2022-09-02T18:03:25.957Z,1.80
2022-09-02T18:06:27.009Z,1.40
2022-09-02T18:09:01.158Z,1.60
2022-09-02T18:11:35.952Z,1.40
2022-09-02T18:14:13.346Z,1.80
2022-09-02T18:17:06.116Z,1.70
2022-09-02T18:19:59.255Z,1.50
2022-09-02T18:22:49.051Z,1.65
2022-09-02T18:25:54.465Z,1.40
2022-09-02T18:28:47.981Z,1.20
2022-09-02T18:31:20.138Z,1.27
2022-09-02T18:34:05.967Z,1.65
2022-09-02T18:36:43.666Z,1.40
2022-09-02T18:39:38.993Z,1.67
2022-09-02T18:42:21.979Z,1.60
2022-09-02T18:45:30.020Z,1.65
2022-09-02T18:48:12.197Z,1.38
2022-09-02T18:50:57.135Z,1.30
2022-09-02T18:53:29.168Z,1.60
2022-09-02T18:56:06.309Z,2.05
2022-09-02T18:58:47.005Z,1.55
2022-09-02T19:01:28.421Z,1.60
2022-09-02T19:03:58.730Z,1.35
2022-09-02T19:06:36.948Z,1.50
2022-09-02T19:09:08.417Z,1.48
2022-09-02T19:11:44.945Z,1.60
2022-09-02T19:14:31.333Z,1.45
2022-09-02T19:17:05.006Z,1.45
2022-09-02T19:19:52.986Z,1.35
2022-09-02T19:22:36.105Z,1.42
2022-09-02T19:25:13.658Z,1.90
2022-09-02T19:27:49.936Z,2.03
2022-09-02T19:30:22.594Z,1.75
2022-09-02T19:32:59.965Z,1.50
2022-09-02T19:35:31.002Z,1.45
2022-09-02T19:37:58.588Z,1.55
2022-09-02T19:40:42.902Z,1.90
2022-09-02T19:43:16.173Z,1.60
2022-09-02T19:45:51.046Z,1.80
2022-09-02T19:48:19.482Z,1.55
2022-09-02T19:50:48.872Z,1.80
2022-09-02T19:53:31.940Z,2.00
2022-09-02T19:56:03.751Z,1.48
2022-09-02T19:58:31.324Z,1.67
2022-09-02T20:01:06.008Z,1.73
2022-09-02T20:03:47.038Z,1.63
2022-09-02T20:06:20.956Z,1.60
2022-09-02T20:08:48.856Z,1.75
2022-09-02T20:11:17.595Z,1.80
2022-09-02T20:13:51.939Z,1.83
2022-09-02T20:16:26.040Z,1.67
2022-09-02T20:19:06.992Z,1.92
2022-09-02T20:21:45.550Z,1.80
2022-09-02T20:24:27.016Z,2.05
2022-09-02T20:27:19.219Z,1.80
2022-09-02T20:30:11.949Z,1.65
2022-09-02T20:32:59.265Z,1.80
2022-09-02T20:35:55.026Z,1.60
2022-09-02T20:38:36.621Z,1.90
2022-09-02T20:41:35.990Z,1.65
2022-09-02T20:44:15.584Z,1.70
2022-09-02T20:46:56.115Z,1.90
2022-09-02T20:49:48.603Z,2.03
2022-09-02T20:52:47.932Z,1.80
2022-09-02T20:55:48.405Z,1.70
2022-09-02T20:58:43.063Z,2.00
2022-09-02T21:01:18.950Z,1.77
2022-09-02T21:03:57.941Z,1.70
2022-09-02T21:06:30.843Z,1.88
2022-09-02T21:09:31.466Z,1.90
2022-09-02T21:12:06.311Z,1.83
2022-09-02T21:14:54.069Z,1.73
2022-09-02T21:17:36.464Z,2.00
2022-09-02T21:20:28.947Z,1.73
2022-09-02T21:23:05.785Z,1.58
2022-09-02T21:25:52.021Z,1.73
2022-09-02T21:28:34.642Z,1.70
2022-09-02T21:31:28.094Z,1.80
2022-09-02T21:34:01.047Z,1.70
2022-09-02T21:36:36.980Z,1.65
2022-09-02T21:39:10.221Z,1.80
2022-09-02T21:41:47.978Z,1.73
2022-09-02T21:44:31.882Z,1.83
2022-09-02T21:47:37.972Z,1.85
2022-09-02T21:50:35.770Z,1.83
2022-09-02T21:53:29.008Z,2.08
2022-09-02T21:56:14.038Z,1.80
2022-09-02T21:59:13.037Z,1.90
2022-09-02T22:01:55.783Z,1.67
2022-09-02T22:04:45.031Z,1.73
2022-09-02T22:07:22.497Z,1.67
2022-09-02T22:10:12.963Z,1.70
2022-09-02T22:12:46.768Z,2.00
2022-09-02T22:15:29.972Z,1.80
2022-09-02T22:18:38.052Z,1.95
2022-09-02T22:21:25.024Z,2.10
2022-09-02T22:23:55.754Z,1.80
2022-09-02T22:26:46.018Z,2.20
2022-09-02T22:29:29.075Z,2.10
2022-09-02T22:32:07.035Z,2.17
2022-09-02T22:34:39.726Z,1.95
2022-09-02T22:37:18.958Z,2.05
2022-09-02T22:39:56.616Z,1.88
2022-09-02T22:42:47.165Z,2.28
2022-09-02T22:45:47.846Z,2.30
2022-09-02T22:49:09.969Z,2.50
2022-09-02T22:52:06.069Z,2.28
2022-09-02T22:54:39.976Z,2.22
2022-09-02T22:57:31.791Z,2.20
2022-09-02T23:00:16.963Z,2.65
2022-09-02T23:02:53.559Z,2.75
2022-09-02T23:05:51.125Z,2.38
2022-09-02T23:08:21.098Z,2.33
2022-09-02T23:11:22.966Z,2.72
2022-09-02T23:14:10.584Z,2.60
2022-09-02T23:17:12.002Z,2.30
2022-09-02T23:20:10.879Z,2.97
2022-09-02T23:22:51.032Z,3.00
2022-09-02T23:25:52.163Z,2.85
2022-09-02T23:28:37.947Z,3.03
2022-09-02T23:31:31.792Z,2.70
2022-09-02T23:34:16.973Z,2.90
2022-09-02T23:36:50.845Z,2.90
2022-09-02T23:40:02.050Z,2.72
2022-09-02T23:42:30.492Z,3.10
2022-09-02T23:45:16.063Z,3.00
2022-09-02T23:47:55.951Z,2.92
2022-09-02T23:50:54.009Z,3.08
2022-09-02T23:53:34.625Z,3.60
2022-09-02T23:56:11.069Z,2.95
2022-09-02T23:58:53.599Z,2.75
